createdAt,value
2022-12-22T00:00:08.422Z,17.20
2022-12-22T00:02:59.347Z,14.70
2022-12-22T00:05:44.625Z,16.00
2022-12-22T00:08:45.377Z,15.95
2022-12-22T00:11:31.946Z,15.38
2022-12-22T00:14:42.619Z,17.85
2022-12-22T00:17:41.336Z,18.65
2022-12-22T00:20:38.849Z,11.67
2022-12-22T00:23:24.350Z,12.00
2022-12-22T00:26:09.274Z,13.50
2022-12-22T00:29:09.415Z,15.65
2022-12-22T00:31:54.352Z,11.80
2022-12-22T00:34:41.138Z,14.10
2022-12-22T00:37:31.158Z,12.85
2022-12-22T00:40:37.576Z,13.65
2022-12-22T00:43:22.876Z,13.95
2022-12-22T00:46:09.342Z,14.75
2022-12-22T00:48:55.063Z,14.43
2022-12-22T00:51:39.866Z,10.90
2022-12-22T00:54:31.911Z,11.35
2022-12-22T00:57:28.597Z,15.88
2022-12-22T01:00:18.904Z,14.70
2022-12-22T01:03:04.150Z,15.38
2022-12-22T01:06:05.295Z,14.57
2022-12-22T01:08:51.591Z,12.88
2022-12-22T01:11:36.464Z,11.65
2022-12-22T01:14:22.132Z,12.13
2022-12-22T01:17:07.009Z,14.13
2022-12-22T01:19:52.552Z,10.90
2022-12-22T01:22:40.041Z,13.63
2022-12-22T01:25:31.471Z,15.73
2022-12-22T01:28:16.415Z,11.15
2022-12-22T01:31:02.585Z,15.07
2022-12-22T01:33:50.797Z,14.90
2022-12-22T01:36:36.527Z,14.80
2022-12-22T01:39:22.515Z,13.02
2022-12-22T01:42:08.454Z,11.93
2022-12-22T01:44:59.555Z,12.40
2022-12-22T01:47:50.404Z,10.75
2022-12-22T01:50:50.795Z,14.35
2022-12-22T01:53:45.680Z,11.52
2022-12-22T01:56:30.906Z,14.75
2022-12-22T01:59:19.308Z,12.80
2022-12-22T02:02:04.713Z,12.63
2022-12-22T02:05:00.872Z,14.15
2022-12-22T02:08:05.973Z,13.65
2022-12-22T02:11:30.727Z,15.82
2022-12-22T02:14:30.291Z,11.50
2022-12-22T02:17:18.530Z,11.55
2022-12-22T02:20:22.236Z,10.65
2022-12-22T02:23:26.815Z,11.75
2022-12-22T02:26:45.156Z,13.15
2022-12-22T02:29:33.700Z,10.82
2022-12-22T02:32:18.851Z,10.10
2022-12-22T02:35:04.806Z,13.05
2022-12-22T02:38:13.243Z,12.52
2022-12-22T02:41:22.779Z,15.23
2022-12-22T02:47:45.700Z,11.13
2022-12-22T02:53:42.838Z,13.00
2022-12-22T02:56:29.630Z,13.60
2022-12-22T02:59:21.184Z,13.10
2022-12-22T03:05:40.780Z,11.30
2022-12-22T03:08:26.115Z,13.65
2022-12-22T03:11:11.262Z,13.13
2022-12-22T03:17:05.654Z,14.75
2022-12-22T03:19:50.794Z,14.98
2022-12-22T03:22:47.899Z,13.77
2022-12-22T03:25:33.449Z,13.60
2022-12-22T03:28:23.167Z,11.63
2022-12-22T03:30:55.777Z,15.63
2022-12-22T03:33:22.681Z,14.13
2022-12-22T03:35:49.260Z,15.38
2022-12-22T03:38:16.084Z,13.43
2022-12-22T03:40:44.584Z,11.80
2022-12-22T03:43:34.494Z,13.10
2022-12-22T03:46:29.422Z,12.10
2022-12-22T03:49:10.640Z,14.88
2022-12-22T03:51:48.877Z,13.23
2022-12-22T03:54:30.201Z,14.05
2022-12-22T03:56:56.789Z,12.68
2022-12-22T03:59:23.436Z,15.50
2022-12-22T04:01:54.595Z,12.63
2022-12-22T04:04:49.625Z,14.13
2022-12-22T04:07:16.197Z,15.38
2022-12-22T04:10:12.570Z,12.57
2022-12-22T04:16:13.254Z,13.93
2022-12-22T04:18:58.373Z,14.18
2022-12-22T04:21:28.125Z,19.63
2022-12-22T04:23:55.034Z,15.27
2022-12-22T04:26:23.434Z,15.45
2022-12-22T04:28:51.737Z,15.68
2022-12-22T04:31:19.176Z,17.70
2022-12-22T04:33:46.362Z,15.27
2022-12-22T04:36:13.666Z,22.38
2022-12-22T04:38:40.432Z,17.63
2022-12-22T04:41:07.565Z,15.95
2022-12-22T04:46:40.952Z,13.27
2022-12-22T04:49:07.687Z,15.05
2022-12-22T04:51:34.239Z,14.27
2022-12-22T04:54:00.772Z,15.35
2022-12-22T04:56:30.393Z,16.75
2022-12-22T05:01:23.706Z,20.23
2022-12-22T05:03:53.637Z,17.60
2022-12-22T05:07:10.647Z,15.18
2022-12-22T05:09:37.182Z,21.90
2022-12-22T05:12:23.868Z,19.88
2022-12-22T05:14:50.442Z,17.23
2022-12-22T05:17:17.055Z,20.38
2022-12-22T05:19:43.725Z,18.88
2022-12-22T05:22:10.366Z,24.40
2022-12-22T05:24:36.914Z,18.20
2022-12-22T05:29:44.608Z,20.10
2022-12-22T05:32:11.281Z,22.73
2022-12-22T05:34:37.878Z,19.65
2022-12-22T05:37:29.898Z,19.33
2022-12-22T05:40:06.176Z,18.80
2022-12-22T05:42:57.705Z,20.75
2022-12-22T05:45:24.369Z,18.77
2022-12-22T05:47:52.435Z,22.55
2022-12-22T05:50:24.497Z,20.27
2022-12-22T05:53:05.335Z,20.05
2022-12-22T05:55:32.430Z,21.88
2022-12-22T05:58:02.069Z,23.27
2022-12-22T06:00:30.837Z,22.85
2022-12-22T06:02:58.704Z,22.23
2022-12-22T06:05:25.613Z,26.05
2022-12-22T06:07:52.351Z,24.92
2022-12-22T06:10:19.102Z,29.25
2022-12-22T06:12:45.669Z,37.20
2022-12-22T06:15:13.979Z,31.95
2022-12-22T06:17:44.732Z,32.35
2022-12-22T06:20:13.648Z,33.60
2022-12-22T06:22:40.222Z,33.28
2022-12-22T06:25:18.029Z,33.55
2022-12-22T06:27:45.948Z,28.02
2022-12-22T06:30:12.936Z,30.83
2022-12-22T06:32:39.755Z,29.70
2022-12-22T06:35:14.329Z,29.40
2022-12-22T06:37:41.321Z,26.92
2022-12-22T06:40:09.340Z,27.13
2022-12-22T06:42:55.387Z,27.10
2022-12-22T06:45:42.050Z,27.17
2022-12-22T06:48:10.074Z,27.30
2022-12-22T06:51:01.774Z,24.25
2022-12-22T06:53:28.368Z,24.67
2022-12-22T06:55:54.913Z,21.33
2022-12-22T06:58:24.761Z,20.83
2022-12-22T07:00:51.837Z,24.40
2022-12-22T07:03:18.568Z,22.27
2022-12-22T07:05:45.959Z,23.45
2022-12-22T07:08:22.335Z,21.27
2022-12-22T07:10:58.819Z,23.67
2022-12-22T07:16:43.779Z,26.70
2022-12-22T07:19:14.470Z,23.63
2022-12-22T07:21:41.029Z,23.75
2022-12-22T07:24:08.024Z,19.92
2022-12-22T07:26:34.651Z,20.10
2022-12-22T07:29:02.413Z,19.90
2022-12-22T07:31:29.099Z,22.73
2022-12-22T07:33:56.055Z,23.58
2022-12-22T07:36:22.861Z,27.10
2022-12-22T07:38:51.398Z,33.03
2022-12-22T07:41:38.323Z,26.45
2022-12-22T07:44:07.094Z,26.65
2022-12-22T07:46:38.877Z,23.45
2022-12-22T07:52:41.926Z,23.77
2022-12-22T07:55:09.120Z,20.92
2022-12-22T07:57:36.047Z,21.55
2022-12-22T08:00:03.476Z,22.52
2022-12-22T08:02:39.521Z,21.58
2022-12-22T08:05:08.031Z,24.45
2022-12-22T08:07:35.096Z,27.30
2022-12-22T08:10:01.777Z,28.25
2022-12-22T08:12:29.731Z,26.95
2022-12-22T08:14:56.819Z,34.92
2022-12-22T08:17:23.548Z,24.55
2022-12-22T08:19:52.606Z,30.33
2022-12-22T08:22:19.541Z,24.23
2022-12-22T08:24:46.035Z,29.45
2022-12-22T08:27:19.551Z,26.55
2022-12-22T08:29:57.279Z,34.38
2022-12-22T08:32:24.537Z,28.88
2022-12-22T08:34:52.533Z,28.83
2022-12-22T08:37:22.691Z,33.35
2022-12-22T08:39:54.919Z,36.72
2022-12-22T08:42:22.792Z,38.08
2022-12-22T08:48:01.713Z,47.80
2022-12-22T08:50:28.328Z,48.00
2022-12-22T08:53:06.514Z,51.22
2022-12-22T08:55:33.462Z,39.97
2022-12-22T08:58:00.959Z,57.55
2022-12-22T09:00:27.694Z,49.47
2022-12-22T09:02:54.352Z,42.97
2022-12-22T09:05:21.148Z,38.92
2022-12-22T09:07:48.627Z,38.90
2022-12-22T09:13:08.767Z,39.15
2022-12-22T09:15:40.639Z,37.53
2022-12-22T09:18:29.227Z,35.85
2022-12-22T09:20:55.937Z,44.67
2022-12-22T09:23:31.358Z,39.42
2022-12-22T09:25:58.004Z,80.07
2022-12-22T09:28:30.644Z,59.13
2022-12-22T09:30:58.321Z,57.33
2022-12-22T09:33:26.355Z,111.30
2022-12-22T09:35:58.976Z,74.35
2022-12-22T09:38:45.524Z,79.78
2022-12-22T09:41:16.128Z,103.05
2022-12-22T09:43:43.602Z,79.00
2022-12-22T09:46:23.779Z,126.85
2022-12-22T09:48:50.927Z,96.13
2022-12-22T09:51:24.419Z,74.60
2022-12-22T09:53:59.463Z,71.10
2022-12-22T09:56:27.982Z,74.10
2022-12-22T09:58:59.007Z,71.93
2022-12-22T10:01:53.260Z,74.03
2022-12-22T10:05:01.565Z,66.88
2022-12-22T10:07:53.954Z,67.03
2022-12-22T10:10:27.633Z,73.28
2022-12-22T10:13:00.195Z,92.57
2022-12-22T10:15:27.950Z,105.18
2022-12-22T10:18:10.037Z,78.80
2022-12-22T10:20:46.169Z,225.90
2022-12-22T10:23:25.380Z,72.57
2022-12-22T10:28:48.292Z,106.78
2022-12-22T10:32:18.464Z,84.47
2022-12-22T10:35:06.190Z,68.28
2022-12-22T10:37:38.729Z,106.55
2022-12-22T10:40:33.407Z,79.78
2022-12-22T10:43:02.133Z,70.80
2022-12-22T10:45:28.746Z,76.07
2022-12-22T10:47:57.386Z,69.57
2022-12-22T10:50:24.213Z,67.73
2022-12-22T10:52:56.468Z,64.60
2022-12-22T10:55:29.322Z,68.22
2022-12-22T10:58:30.252Z,61.83
2022-12-22T11:01:05.147Z,66.07
2022-12-22T11:03:35.891Z,62.97
2022-12-22T11:06:02.552Z,64.97
2022-12-22T11:08:31.460Z,65.53
2022-12-22T11:11:11.065Z,57.15
2022-12-22T11:14:04.763Z,57.28
2022-12-22T11:16:51.560Z,65.53
2022-12-22T11:19:42.677Z,60.95
2022-12-22T11:22:28.276Z,66.85
2022-12-22T11:25:06.436Z,60.38
2022-12-22T11:28:04.325Z,56.45
2022-12-22T11:31:13.118Z,58.70
2022-12-22T11:33:54.648Z,60.60
2022-12-22T11:36:46.038Z,63.22
2022-12-22T11:39:15.522Z,61.47
2022-12-22T11:42:28.486Z,62.90
2022-12-22T11:45:30.625Z,71.10
2022-12-22T11:47:57.179Z,51.97
2022-12-22T11:51:01.264Z,54.60
2022-12-22T11:54:08.682Z,55.90
2022-12-22T11:56:47.294Z,49.30
2022-12-22T11:59:45.394Z,46.38
2022-12-22T12:02:44.477Z,47.00
2022-12-22T12:05:38.353Z,42.10
2022-12-22T12:08:16.236Z,45.22
2022-12-22T12:10:54.344Z,40.13
2022-12-22T12:13:37.487Z,44.08
2022-12-22T12:16:34.936Z,39.80
2022-12-22T12:19:26.857Z,37.75
2022-12-22T12:21:59.912Z,33.92
2022-12-22T12:24:52.004Z,34.72
2022-12-22T12:27:18.530Z,29.55
2022-12-22T12:33:06.564Z,29.58
2022-12-22T12:36:02.598Z,32.00
2022-12-22T12:39:07.526Z,31.02
2022-12-22T12:41:45.211Z,29.90
2022-12-22T12:44:15.254Z,28.95
2022-12-22T12:46:51.549Z,32.28
2022-12-22T12:50:02.057Z,29.25
2022-12-22T12:52:40.914Z,28.20
2022-12-22T12:55:32.536Z,20.48
2022-12-22T12:58:03.272Z,21.92
2022-12-22T13:00:35.837Z,22.40
2022-12-22T13:03:02.633Z,21.75
2022-12-22T13:05:33.023Z,22.08
2022-12-22T13:08:20.831Z,21.98
2022-12-22T13:10:55.450Z,20.23
2022-12-22T13:13:25.759Z,21.52
2022-12-22T13:16:13.452Z,20.25
2022-12-22T13:18:49.824Z,22.38
2022-12-22T13:22:31.790Z,21.65
2022-12-22T13:25:04.341Z,18.20
2022-12-22T13:27:36.974Z,23.77
2022-12-22T13:30:19.420Z,23.83
2022-12-22T13:33:08.311Z,21.80
2022-12-22T13:35:53.502Z,20.63
2022-12-22T13:41:43.046Z,19.67
2022-12-22T13:44:42.691Z,23.23
2022-12-22T13:47:15.549Z,21.13
2022-12-22T13:50:08.436Z,27.65
2022-12-22T13:53:06.145Z,20.08
2022-12-22T13:55:44.087Z,21.90
2022-12-22T13:58:32.135Z,20.25
2022-12-22T14:04:43.010Z,22.60
2022-12-22T14:07:14.998Z,20.73
2022-12-22T14:09:59.933Z,23.85
2022-12-22T14:12:45.034Z,22.13
2022-12-22T14:15:19.351Z,24.63
2022-12-22T14:17:52.903Z,26.88
2022-12-22T14:20:38.194Z,22.27
2022-12-22T14:23:30.687Z,24.17
2022-12-22T14:25:59.089Z,21.48
2022-12-22T14:28:29.886Z,21.75
2022-12-22T14:31:02.628Z,27.83
2022-12-22T14:33:32.892Z,22.17
2022-12-22T14:36:24.162Z,25.73
2022-12-22T14:38:56.421Z,22.60
2022-12-22T14:41:42.029Z,26.63
2022-12-22T14:44:20.969Z,20.83
2022-12-22T14:47:15.102Z,23.15
2022-12-22T14:49:50.983Z,22.55
2022-12-22T14:52:56.144Z,22.80
2022-12-22T14:55:37.833Z,23.77
2022-12-22T14:58:10.674Z,22.85
2022-12-22T15:00:40.752Z,22.83
2022-12-22T15:03:31.003Z,21.00
2022-12-22T15:06:44.747Z,23.33
2022-12-22T15:09:14.223Z,25.30
2022-12-22T15:14:16.260Z,23.98
2022-12-22T15:16:45.161Z,22.58
2022-12-22T15:19:17.135Z,20.80
2022-12-22T15:21:44.428Z,22.00
2022-12-22T15:24:15.474Z,25.90
2022-12-22T15:26:42.770Z,25.77
2022-12-22T15:29:09.446Z,22.00
2022-12-22T15:31:38.302Z,24.10
2022-12-22T15:34:13.473Z,23.50
2022-12-22T15:36:40.388Z,22.65
2022-12-22T15:39:13.687Z,21.48
2022-12-22T15:41:41.163Z,25.52
2022-12-22T15:44:08.274Z,30.67
2022-12-22T15:46:36.150Z,27.60
2022-12-22T15:49:03.440Z,26.88
2022-12-22T15:51:32.230Z,28.50
2022-12-22T15:54:00.105Z,28.03
2022-12-22T15:56:30.447Z,28.33
2022-12-22T15:58:57.822Z,28.45
2022-12-22T16:01:25.100Z,31.52
2022-12-22T16:03:52.457Z,33.72
2022-12-22T16:06:19.806Z,29.33
2022-12-22T16:08:53.621Z,25.92
2022-12-22T16:14:01.818Z,33.67
2022-12-22T16:16:28.980Z,34.63
2022-12-22T16:18:55.846Z,32.38
2022-12-22T16:21:29.558Z,38.40
2022-12-22T16:23:56.988Z,30.70
2022-12-22T16:26:23.708Z,32.65
2022-12-22T16:28:50.576Z,36.33
2022-12-22T16:31:21.479Z,37.63
2022-12-22T16:33:48.795Z,35.13
2022-12-22T16:36:15.606Z,39.53
2022-12-22T16:38:45.820Z,43.22
2022-12-22T16:41:25.498Z,36.72
2022-12-22T16:46:22.419Z,46.60
2022-12-22T16:48:55.567Z,46.35
2022-12-22T16:51:26.361Z,48.08
2022-12-22T16:53:53.081Z,57.78
2022-12-22T16:56:31.304Z,58.95
2022-12-22T16:58:58.844Z,60.50
2022-12-22T17:01:32.131Z,62.63
2022-12-22T17:04:04.940Z,46.78
2022-12-22T17:06:32.505Z,57.70
2022-12-22T17:08:59.559Z,51.20
2022-12-22T17:11:29.378Z,53.85
2022-12-22T17:14:04.652Z,52.45
2022-12-22T17:16:34.682Z,60.42
2022-12-22T17:19:01.839Z,52.22
2022-12-22T17:21:29.811Z,52.90
2022-12-22T17:24:03.731Z,55.38
2022-12-22T17:26:33.351Z,53.42
2022-12-22T17:29:00.282Z,52.75
2022-12-22T17:31:26.951Z,50.00
2022-12-22T17:33:53.810Z,50.63
2022-12-22T17:36:33.313Z,45.80
2022-12-22T17:39:01.719Z,47.47
2022-12-22T17:41:28.738Z,43.15
2022-12-22T17:43:55.341Z,49.15
2022-12-22T17:46:22.599Z,51.60
2022-12-22T17:48:50.194Z,44.65
2022-12-22T17:51:23.753Z,43.85
2022-12-22T17:53:51.955Z,43.75
2022-12-22T17:56:20.930Z,43.33
2022-12-22T17:58:48.671Z,43.50
2022-12-22T18:01:27.580Z,45.78
2022-12-22T18:03:56.020Z,47.13
2022-12-22T18:06:31.046Z,45.93
2022-12-22T18:08:58.627Z,42.25
2022-12-22T18:11:26.291Z,43.78
2022-12-22T18:13:54.090Z,41.40
2022-12-22T18:16:23.066Z,42.60
2022-12-22T18:18:49.895Z,43.90
2022-12-22T18:21:20.134Z,42.72
2022-12-22T18:23:50.336Z,41.38
2022-12-22T18:26:26.492Z,45.08
2022-12-22T18:28:54.231Z,41.92
2022-12-22T18:31:22.498Z,43.33
2022-12-22T18:33:49.219Z,44.40
2022-12-22T18:36:30.565Z,46.85
2022-12-22T18:38:58.650Z,48.03
2022-12-22T18:41:27.084Z,45.53
2022-12-22T18:43:53.843Z,41.25
2022-12-22T18:46:20.917Z,51.67
2022-12-22T18:48:48.390Z,49.58
2022-12-22T18:51:24.237Z,50.08
2022-12-22T18:53:52.513Z,48.63
2022-12-22T18:56:19.495Z,48.65
2022-12-22T18:58:46.690Z,51.05
2022-12-22T19:01:21.708Z,52.53
2022-12-22T19:03:50.324Z,53.90
2022-12-22T19:06:19.430Z,49.95
2022-12-22T19:08:48.250Z,49.88
2022-12-22T19:11:17.681Z,53.70
2022-12-22T19:13:47.004Z,53.42
2022-12-22T19:16:16.355Z,53.45
2022-12-22T19:18:43.048Z,50.08
2022-12-22T19:21:17.451Z,51.63
2022-12-22T19:23:44.630Z,51.70
2022-12-22T19:26:25.907Z,53.65
2022-12-22T19:28:55.832Z,50.75
2022-12-22T19:31:25.780Z,51.63
2022-12-22T19:33:53.462Z,56.33
2022-12-22T19:36:25.878Z,56.53
2022-12-22T19:39:03.316Z,54.75
2022-12-22T19:41:43.302Z,58.38
2022-12-22T19:44:25.415Z,54.70
2022-12-22T19:46:53.749Z,54.33
2022-12-22T19:49:23.118Z,59.35
2022-12-22T19:51:49.806Z,59.45
2022-12-22T19:54:17.094Z,54.35
2022-12-22T19:56:47.562Z,61.40
2022-12-22T19:59:41.057Z,54.40
2022-12-22T20:02:34.525Z,67.10
2022-12-22T20:05:01.464Z,67.95
2022-12-22T20:07:30.412Z,56.28
2022-12-22T20:09:56.968Z,60.60
2022-12-22T20:12:31.717Z,57.70
2022-12-22T20:14:58.748Z,58.22
2022-12-22T20:17:25.509Z,62.13
2022-12-22T20:20:01.329Z,55.42
2022-12-22T20:22:28.414Z,60.10
2022-12-22T20:24:55.219Z,57.50
2022-12-22T20:27:35.283Z,57.60
2022-12-22T20:30:01.890Z,54.15
2022-12-22T20:32:28.967Z,57.17
2022-12-22T20:35:11.503Z,64.35
2022-12-22T20:37:38.845Z,56.17
2022-12-22T20:40:25.791Z,57.05
2022-12-22T20:42:52.710Z,59.60
2022-12-22T20:45:29.690Z,67.63
2022-12-22T20:51:06.293Z,61.92
2022-12-22T20:54:01.599Z,58.57
2022-12-22T20:56:32.644Z,63.28
2022-12-22T20:59:07.541Z,55.70
2022-12-22T21:01:34.196Z,58.25
2022-12-22T21:04:00.860Z,60.60
2022-12-22T21:06:33.914Z,59.78
2022-12-22T21:09:03.422Z,58.80
2022-12-22T21:11:35.253Z,63.78
2022-12-22T21:14:05.130Z,65.15
2022-12-22T21:16:34.080Z,61.22
2022-12-22T21:19:03.933Z,60.97
2022-12-22T21:23:57.072Z,58.83
2022-12-22T21:26:37.117Z,58.65
2022-12-22T21:29:08.132Z,56.20
2022-12-22T21:31:36.339Z,59.30
2022-12-22T21:34:03.088Z,56.15
2022-12-22T21:36:32.673Z,59.10
2022-12-22T21:39:03.469Z,54.85
2022-12-22T21:41:48.905Z,51.92
2022-12-22T21:44:15.577Z,58.55
2022-12-22T21:46:44.557Z,46.95
2022-12-22T21:49:19.782Z,50.17
2022-12-22T21:52:12.182Z,47.28
2022-12-22T21:54:38.986Z,47.65
2022-12-22T21:57:05.881Z,38.67
2022-12-22T21:59:32.453Z,45.95
2022-12-22T22:01:59.155Z,42.05
2022-12-22T22:04:25.955Z,33.58
2022-12-22T22:06:52.572Z,36.30
2022-12-22T22:09:19.247Z,32.95
2022-12-22T22:12:04.255Z,30.63
2022-12-22T22:14:30.990Z,31.35
2022-12-22T22:16:57.655Z,28.02
2022-12-22T22:19:24.267Z,33.95
2022-12-22T22:21:50.982Z,25.92
2022-12-22T22:24:17.612Z,30.58
2022-12-22T22:26:46.009Z,31.80
2022-12-22T22:29:12.847Z,27.30
2022-12-22T22:31:40.451Z,24.63
2022-12-22T22:34:07.047Z,30.20
2022-12-22T22:36:33.628Z,27.10
2022-12-22T22:39:00.159Z,29.73
2022-12-22T22:41:28.482Z,32.83
2022-12-22T22:43:55.130Z,30.95
2022-12-22T22:46:21.806Z,32.83
2022-12-22T22:48:48.677Z,29.92
2022-12-22T22:51:15.241Z,32.03
2022-12-22T22:53:42.217Z,31.55
2022-12-22T22:56:09.179Z,31.92
2022-12-22T22:58:35.746Z,33.47
2022-12-22T23:01:11.298Z,26.90
2022-12-22T23:03:38.233Z,25.65
2022-12-22T23:06:07.799Z,26.55
2022-12-22T23:08:35.176Z,22.25
2022-12-22T23:11:02.827Z,28.02
2022-12-22T23:13:29.567Z,26.15
2022-12-22T23:15:58.433Z,27.25
2022-12-22T23:18:25.634Z,26.85
2022-12-22T23:20:52.453Z,27.10
2022-12-22T23:23:19.823Z,32.70
2022-12-22T23:25:49.605Z,30.75
2022-12-22T23:28:16.797Z,35.35
2022-12-22T23:30:45.313Z,39.70
2022-12-22T23:33:11.984Z,36.80
2022-12-22T23:35:40.257Z,39.65
2022-12-22T23:38:09.700Z,38.45
2022-12-22T23:40:54.710Z,38.30
2022-12-22T23:43:22.335Z,41.72
2022-12-22T23:45:49.207Z,40.17
2022-12-22T23:48:15.824Z,41.25
2022-12-22T23:50:45.889Z,42.33
2022-12-22T23:53:12.499Z,48.20
2022-12-22T23:55:44.584Z,45.03
2022-12-22T23:58:11.968Z,47.42
